sensor_id;sensor_type;location;lat;lon;timestamp;pressure;altitude;pressure_sealevel;temperature;humidity
10718;BME280;13513;42.700;23.124;2023-05-25T00:02:30;92919.63;;;15.07;100.00
10718;BME280;13513;42.700;23.124;2023-05-25T00:05:01;92917.52;;;15.02;100.00
10718;BME280;13513;42.700;23.124;2023-05-25T00:07:31;92917.81;;;14.95;100.00
10718;BME280;13513;42.700;23.124;2023-05-25T00:10:02;92916.20;;;14.99;100.00
10718;BME280;13513;42.700;23.124;2023-05-25T00:12:34;92918.56;;;15.06;100.00
10718;BME280;13513;42.700;23.124;2023-05-25T00:15:07;92915.39;;;15.04;100.00
10718;BME280;13513;42.700;23.124;2023-05-25T00:17:36;92910.92;;;14.92;100.00
10718;BME280;13513;42.700;23.124;2023-05-25T00:20:08;92916.45;;;15.00;100.00
10718;BME280;13513;42.700;23.124;2023-05-25T00:22:38;92918.34;;;15.00;100.00
10718;BME280;13513;42.700;23.124;2023-05-25T00:25:09;92917.53;;;14.99;100.00
10718;BME280;13513;42.700;23.124;2023-05-25T00:27:40;92913.56;;;14.97;100.00
10718;BME280;13513;42.700;23.124;2023-05-25T00:30:11;92912.02;;;14.76;100.00
10718;BME280;13513;42.700;23.124;2023-05-25T00:32:42;92916.84;;;14.74;100.00
10718;BME280;13513;42.700;23.124;2023-05-25T00:35:13;92915.80;;;14.67;100.00
10718;BME280;13513;42.700;23.124;2023-05-25T00:37:43;92921.34;;;14.73;100.00
10718;BME280;13513;42.700;23.124;2023-05-25T00:40:15;92927.16;;;14.85;100.00
10718;BME280;13513;42.700;23.124;2023-05-25T00:42:48;92924.02;;;14.78;100.00
10718;BME280;13513;42.700;23.124;2023-05-25T00:45:19;92923.17;;;14.83;100.00
10718;BME280;13513;42.700;23.124;2023-05-25T00:47:53;92928.22;;;14.87;100.00
10718;BME280;13513;42.700;23.124;2023-05-25T00:50:35;92926.89;;;14.92;100.00
10718;BME280;13513;42.700;23.124;2023-05-25T00:52:56;92927.64;;;14.97;100.00
10718;BME280;13513;42.700;23.124;2023-05-25T00:55:28;92927.66;;;14.95;100.00
10718;BME280;13513;42.700;23.124;2023-05-25T00:58:00;92929.53;;;14.89;100.00
10718;BME280;13513;42.700;23.124;2023-05-25T01:00:34;92928.76;;;14.89;100.00
10718;BME280;13513;42.700;23.124;2023-05-25T01:03:13;92927.40;;;14.94;100.00
10718;BME280;13513;42.700;23.124;2023-05-25T01:05:46;92930.86;;;14.89;100.00
10718;BME280;13513;42.700;23.124;2023-05-25T01:08:19;92929.00;;;14.92;100.00
10718;BME280;13513;42.700;23.124;2023-05-25T01:10:51;92926.08;;;14.91;100.00
10718;BME280;13513;42.700;23.124;2023-05-25T01:13:21;92926.39;;;14.82;100.00
10718;BME280;13513;42.700;23.124;2023-05-25T01:15:52;92925.88;;;14.75;100.00
10718;BME280;13513;42.700;23.124;2023-05-25T01:18:24;92933.62;;;14.64;100.00
10718;BME280;13513;42.700;23.124;2023-05-25T01:21:12;92930.92;;;14.72;100.00
10718;BME280;13513;42.700;23.124;2023-05-25T01:24:37;92933.36;;;14.63;100.00
10718;BME280;13513;42.700;23.124;2023-05-25T01:26:24;92925.11;;;14.67;100.00
10718;BME280;13513;42.700;23.124;2023-05-25T01:28:55;92929.11;;;14.65;100.00
10718;BME280;13513;42.700;23.124;2023-05-25T01:31:29;92923.77;;;14.62;100.00
10718;BME280;13513;42.700;23.124;2023-05-25T01:34:04;92917.94;;;14.60;100.00
10718;BME280;13513;42.700;23.124;2023-05-25T01:36:35;92919.78;;;14.62;100.00
10718;BME280;13513;42.700;23.124;2023-05-25T01:39:06;92918.73;;;14.63;100.00
10718;BME280;13513;42.700;23.124;2023-05-25T01:41:37;92919.53;;;14.59;100.00
10718;BME280;13513;42.700;23.124;2023-05-25T01:44:08;92916.36;;;14.52;100.00
10718;BME280;13513;42.700;23.124;2023-05-25T01:46:40;92914.23;;;14.49;100.00
10718;BME280;13513;42.700;23.124;2023-05-25T01:49:27;92912.12;;;14.43;100.00
10718;BME280;13513;42.700;23.124;2023-05-25T01:52:44;92913.19;;;14.50;100.00
10718;BME280;13513;42.700;23.124;2023-05-25T01:54:39;92907.33;;;14.48;100.00
10718;BME280;13513;42.700;23.124;2023-05-25T01:57:11;92912.64;;;14.48;100.00
10718;BME280;13513;42.700;23.124;2023-05-25T01:59:43;92917.70;;;14.49;100.00
10718;BME280;13513;42.700;23.124;2023-05-25T02:02:18;92922.48;;;14.47;100.00
10718;BME280;13513;42.700;23.124;2023-05-25T02:04:50;92911.31;;;14.50;100.00
10718;BME280;13513;42.700;23.124;2023-05-25T02:07:22;92915.28;;;14.53;100.00
10718;BME280;13513;42.700;23.124;2023-05-25T02:09:51;92918.24;;;14.51;100.00
10718;BME280;13513;42.700;23.124;2023-05-25T02:12:22;92917.97;;;14.48;100.00
10718;BME280;13513;42.700;23.124;2023-05-25T02:14:54;92928.39;;;14.27;100.00
10718;BME280;13513;42.700;23.124;2023-05-25T02:17:25;92922.77;;;14.18;100.00
10718;BME280;13513;42.700;23.124;2023-05-25T02:19:58;92930.20;;;14.16;100.00
10718;BME280;13513;42.700;23.124;2023-05-25T02:22:32;92936.08;;;14.23;100.00
10718;BME280;13513;42.700;23.124;2023-05-25T02:25:02;92922.52;;;14.27;100.00
10718;BME280;13513;42.700;23.124;2023-05-25T02:27:34;92926.78;;;14.23;100.00
10718;BME280;13513;42.700;23.124;2023-05-25T02:30:06;92934.47;;;14.30;100.00
10718;BME280;13513;42.700;23.124;2023-05-25T02:32:37;92929.16;;;14.37;100.00
10718;BME280;13513;42.700;23.124;2023-05-25T02:35:07;92928.37;;;14.22;100.00
10718;BME280;13513;42.700;23.124;2023-05-25T02:37:38;92937.39;;;14.16;100.00
10718;BME280;13513;42.700;23.124;2023-05-25T02:40:10;92936.34;;;14.22;100.00
10718;BME280;13513;42.700;23.124;2023-05-25T02:42:39;92931.03;;;14.29;100.00
10718;BME280;13513;42.700;23.124;2023-05-25T02:45:11;92933.42;;;14.33;100.00
10718;BME280;13513;42.700;23.124;2023-05-25T02:47:42;92938.20;;;14.39;100.00
10718;BME280;13513;42.700;23.124;2023-05-25T02:50:13;92949.36;;;14.36;100.00
10718;BME280;13513;42.700;23.124;2023-05-25T02:52:44;92945.89;;;14.35;100.00
10718;BME280;13513;42.700;23.124;2023-05-25T02:55:15;92953.63;;;14.42;100.00
10718;BME280;13513;42.700;23.124;2023-05-25T02:57:45;92952.27;;;14.49;100.00
10718;BME280;13513;42.700;23.124;2023-05-25T03:00:16;92950.41;;;14.50;100.00
10718;BME280;13513;42.700;23.124;2023-05-25T03:02:47;92955.97;;;14.53;100.00
10718;BME280;13513;42.700;23.124;2023-05-25T03:05:19;92961.28;;;14.56;100.00
10718;BME280;13513;42.700;23.124;2023-05-25T03:07:50;92964.50;;;14.55;100.00
10718;BME280;13513;42.700;23.124;2023-05-25T03:10:19;92959.45;;;14.51;100.00
10718;BME280;13513;42.700;23.124;2023-05-25T03:12:49;92956.53;;;14.43;100.00
10718;BME280;13513;42.700;23.124;2023-05-25T03:15:21;92955.97;;;14.56;100.00
10718;BME280;13513;42.700;23.124;2023-05-25T03:17:51;92958.89;;;14.62;100.00
10718;BME280;13513;42.700;23.124;2023-05-25T03:20:21;92960.77;;;14.54;100.00
10718;BME280;13513;42.700;23.124;2023-05-25T03:22:53;92954.38;;;14.65;100.00
10718;BME280;13513;42.700;23.124;2023-05-25T03:25:24;92957.02;;;14.62;100.00
10718;BME280;13513;42.700;23.124;2023-05-25T03:27:55;92963.38;;;14.74;100.00
10718;BME280;13513;42.700;23.124;2023-05-25T03:30:25;92961.23;;;14.76;100.00
10718;BME280;13513;42.700;23.124;2023-05-25T03:32:56;92962.02;;;14.81;100.00
10718;BME280;13513;42.700;23.124;2023-05-25T03:35:26;92961.47;;;14.94;100.00
10718;BME280;13513;42.700;23.124;2023-05-25T03:37:57;92966.45;;;15.08;100.00
10718;BME280;13513;42.700;23.124;2023-05-25T03:40:27;92968.02;;;15.17;100.00
10718;BME280;13513;42.700;23.124;2023-05-25T03:42:59;92973.31;;;15.27;100.00
10718;BME280;13513;42.700;23.124;2023-05-25T03:45:29;92976.48;;;15.39;100.00
10718;BME280;13513;42.700;23.124;2023-05-25T03:48:00;92976.43;;;15.46;100.00
10718;BME280;13513;42.700;23.124;2023-05-25T03:50:31;92979.33;;;15.55;100.00
10718;BME280;13513;42.700;23.124;2023-05-25T03:53:02;92981.68;;;15.61;100.00
10718;BME280;13513;42.700;23.124;2023-05-25T03:55:33;92983.53;;;15.66;100.00
10718;BME280;13513;42.700;23.124;2023-05-25T03:58:04;92985.36;;;15.73;100.00
10718;BME280;13513;42.700;23.124;2023-05-25T04:00:35;92988.20;;;15.86;100.00
10718;BME280;13513;42.700;23.124;2023-05-25T04:03:06;92985.99;;;15.98;100.00
10718;BME280;13513;42.700;23.124;2023-05-25T04:05:37;92982.96;;;16.10;100.00
10718;BME280;13513;42.700;23.124;2023-05-25T04:08:09;92986.27;;;16.31;100.00
10718;BME280;13513;42.700;23.124;2023-05-25T04:10:40;92982.63;;;16.55;100.00
10718;BME280;13513;42.700;23.124;2023-05-25T04:13:12;92986.25;;;16.69;100.00
10718;BME280;13513;42.700;23.124;2023-05-25T04:15:43;92988.16;;;16.92;100.00
10718;BME280;13513;42.700;23.124;2023-05-25T04:18:14;92995.13;;;17.12;100.00
10718;BME280;13513;42.700;23.124;2023-05-25T04:20:46;92992.61;;;17.23;100.00
10718;BME280;13513;42.700;23.124;2023-05-25T04:23:17;93000.94;;;17.42;100.00
10718;BME280;13513;42.700;23.124;2023-05-25T04:25:47;92996.33;;;17.48;100.00
10718;BME280;13513;42.700;23.124;2023-05-25T04:28:21;93004.12;;;17.68;100.00
10718;BME280;13513;42.700;23.124;2023-05-25T04:30:53;93003.73;;;17.95;100.00
10718;BME280;13513;42.700;23.124;2023-05-25T04:33:26;93010.84;;;18.21;100.00
10718;BME280;13513;42.700;23.124;2023-05-25T04:35:56;93001.05;;;18.32;100.00
10718;BME280;13513;42.700;23.124;2023-05-25T04:38:27;93002.95;;;18.50;99.57
10718;BME280;13513;42.700;23.124;2023-05-25T04:40:58;93005.28;;;18.70;97.16
10718;BME280;13513;42.700;23.124;2023-05-25T04:43:32;93003.69;;;19.15;95.52
10718;BME280;13513;42.700;23.124;2023-05-25T04:46:03;93002.17;;;19.52;89.31
10718;BME280;13513;42.700;23.124;2023-05-25T04:48:34;92997.84;;;19.81;88.83
10718;BME280;13513;42.700;23.124;2023-05-25T04:51:05;93009.50;;;20.01;87.19
10718;BME280;13513;42.700;23.124;2023-05-25T04:53:36;93007.08;;;20.26;84.97
10718;BME280;13513;42.700;23.124;2023-05-25T04:56:07;93008.26;;;20.56;85.29
10718;BME280;13513;42.700;23.124;2023-05-25T04:58:38;93005.61;;;21.19;79.39
10718;BME280;13513;42.700;23.124;2023-05-25T05:01:08;93003.59;;;21.64;72.94
10718;BME280;13513;42.700;23.124;2023-05-25T05:03:39;93006.07;;;21.91;71.17
10718;BME280;13513;42.700;23.124;2023-05-25T05:06:10;93012.61;;;22.15;74.00
10718;BME280;13513;42.700;23.124;2023-05-25T05:08:40;93008.59;;;22.32;75.56
10718;BME280;13513;42.700;23.124;2023-05-25T05:11:11;93009.64;;;22.51;73.25
10718;BME280;13513;42.700;23.124;2023-05-25T05:13:41;93010.13;;;22.95;70.86
10718;BME280;13513;42.700;23.124;2023-05-25T05:16:12;93003.77;;;23.63;65.54
10718;BME280;13513;42.700;23.124;2023-05-25T05:18:43;93002.45;;;24.56;57.14
10718;BME280;13513;42.700;23.124;2023-05-25T05:21:15;93002.42;;;25.24;52.23
10718;BME280;13513;42.700;23.124;2023-05-25T05:23:46;93003.56;;;25.67;50.22
10718;BME280;13513;42.700;23.124;2023-05-25T05:26:16;93016.44;;;26.48;48.22
10718;BME280;13513;42.700;23.124;2023-05-25T05:28:50;93019.25;;;27.04;45.86
10718;BME280;13513;42.700;23.124;2023-05-25T05:31:21;93017.63;;;27.42;45.63
10718;BME280;13513;42.700;23.124;2023-05-25T05:33:51;93019.16;;;28.08;43.89
10718;BME280;13513;42.700;23.124;2023-05-25T05:36:22;93016.77;;;28.37;42.75
10718;BME280;13513;42.700;23.124;2023-05-25T05:38:53;93015.54;;;28.35;42.75
10718;BME280;13513;42.700;23.124;2023-05-25T05:41:24;93018.20;;;28.56;42.89
10718;BME280;13513;42.700;23.124;2023-05-25T05:43:55;93013.88;;;28.90;41.54
10718;BME280;13513;42.700;23.124;2023-05-25T05:46:25;93020.03;;;28.87;40.64
10718;BME280;13513;42.700;23.124;2023-05-25T05:48:56;93013.86;;;28.71;41.75
10718;BME280;13513;42.700;23.124;2023-05-25T05:51:27;93015.53;;;28.50;42.70
10718;BME280;13513;42.700;23.124;2023-05-25T05:53:58;93019.23;;;28.27;42.84
10718;BME280;13513;42.700;23.124;2023-05-25T05:56:29;93016.66;;;28.09;43.79
10718;BME280;13513;42.700;23.124;2023-05-25T05:59:00;93025.33;;;27.77;43.90
10718;BME280;13513;42.700;23.124;2023-05-25T06:01:31;93029.34;;;27.52;43.20
10718;BME280;13513;42.700;23.124;2023-05-25T06:04:01;93030.23;;;26.07;46.70
10718;BME280;13513;42.700;23.124;2023-05-25T06:06:32;93023.18;;;25.82;48.15
10718;BME280;13513;42.700;23.124;2023-05-25T06:09:02;93027.44;;;25.53;49.66
10718;BME280;13513;42.700;23.124;2023-05-25T06:11:35;93025.70;;;25.16;49.80
10718;BME280;13513;42.700;23.124;2023-05-25T06:14:06;93032.45;;;24.49;53.74
10718;BME280;13513;42.700;23.124;2023-05-25T06:16:37;93028.22;;;24.39;54.09
10718;BME280;13513;42.700;23.124;2023-05-25T06:19:08;93029.80;;;24.20;56.34
10718;BME280;13513;42.700;23.124;2023-05-25T06:21:39;93034.84;;;23.46;57.81
10718;BME280;13513;42.700;23.124;2023-05-25T06:24:10;93034.52;;;23.07;61.48
10718;BME280;13513;42.700;23.124;2023-05-25T06:26:41;93032.75;;;23.29;64.16
10718;BME280;13513;42.700;23.124;2023-05-25T06:29:11;93029.63;;;23.41;63.62
10718;BME280;13513;42.700;23.124;2023-05-25T06:31:42;93038.43;;;23.44;62.23
10718;BME280;13513;42.700;23.124;2023-05-25T06:34:14;93046.20;;;23.46;61.88
10718;BME280;13513;42.700;23.124;2023-05-25T06:36:44;93046.34;;;23.49;61.34
10718;BME280;13513;42.700;23.124;2023-05-25T06:39:15;93050.61;;;23.50;61.89
10718;BME280;13513;42.700;23.124;2023-05-25T06:41:48;93052.33;;;23.40;61.70
10718;BME280;13513;42.700;23.124;2023-05-25T06:44:19;93055.67;;;23.29;61.90
10718;BME280;13513;42.700;23.124;2023-05-25T06:46:50;93058.20;;;23.16;64.72
10718;BME280;13513;42.700;23.124;2023-05-25T06:49:20;93062.51;;;23.09;64.19
10718;BME280;13513;42.700;23.124;2023-05-25T06:51:51;93060.52;;;22.78;65.01
10718;BME280;13513;42.700;23.124;2023-05-25T06:54:22;93068.22;;;22.73;67.38
10718;BME280;13513;42.700;23.124;2023-05-25T06:56:52;93066.80;;;22.76;68.36
10718;BME280;13513;42.700;23.124;2023-05-25T06:59:23;93069.78;;;22.49;69.73
10718;BME280;13513;42.700;23.124;2023-05-25T07:01:54;93067.28;;;22.33;71.99
10718;BME280;13513;42.700;23.124;2023-05-25T07:04:25;93065.91;;;22.24;72.29
10718;BME280;13513;42.700;23.124;2023-05-25T07:06:55;93066.00;;;21.94;72.58
10718;BME280;13513;42.700;23.124;2023-05-25T07:09:26;93067.95;;;21.71;73.81
10718;BME280;13513;42.700;23.124;2023-05-25T07:11:57;93070.69;;;21.49;75.66
10718;BME280;13513;42.700;23.124;2023-05-25T07:14:28;93066.20;;;21.14;77.88
10718;BME280;13513;42.700;23.124;2023-05-25T07:16:59;93067.88;;;21.02;76.89
10718;BME280;13513;42.700;23.124;2023-05-25T07:19:29;93067.64;;;20.87;80.04
10718;BME280;13513;42.700;23.124;2023-05-25T07:22:01;93070.09;;;20.86;85.31
10718;BME280;13513;42.700;23.124;2023-05-25T07:24:32;93069.16;;;20.69;83.19
10718;BME280;13513;42.700;23.124;2023-05-25T07:27:03;93065.00;;;20.52;87.46
10718;BME280;13513;42.700;23.124;2023-05-25T07:29:33;93067.06;;;20.44;89.54
10718;BME280;13513;42.700;23.124;2023-05-25T07:32:04;93065.25;;;20.28;91.82
10718;BME280;13513;42.700;23.124;2023-05-25T07:34:35;93062.30;;;19.89;89.92
10718;BME280;13513;42.700;23.124;2023-05-25T07:37:07;93067.86;;;19.79;97.13
10718;BME280;13513;42.700;23.124;2023-05-25T07:39:38;93065.81;;;19.60;100.00
10718;BME280;13513;42.700;23.124;2023-05-25T07:42:08;93064.80;;;19.58;100.00
10718;BME280;13513;42.700;23.124;2023-05-25T07:44:39;93054.60;;;19.44;100.00
10718;BME280;13513;42.700;23.124;2023-05-25T07:47:11;93052.45;;;18.98;100.00
10718;BME280;13513;42.700;23.124;2023-05-25T07:49:41;93059.48;;;19.10;100.00
10718;BME280;13513;42.700;23.124;2023-05-25T07:52:12;93060.16;;;19.02;100.00
10718;BME280;13513;42.700;23.124;2023-05-25T07:54:43;93057.61;;;19.27;100.00
10718;BME280;13513;42.700;23.124;2023-05-25T07:57:14;93049.94;;;19.50;100.00
10718;BME280;13513;42.700;23.124;2023-05-25T07:59:45;93045.70;;;19.60;100.00
10718;BME280;13513;42.700;23.124;2023-05-25T08:02:16;93054.20;;;19.78;100.00
10718;BME280;13513;42.700;23.124;2023-05-25T08:04:46;93055.41;;;19.86;100.00
10718;BME280;13513;42.700;23.124;2023-05-25T08:07:20;93049.53;;;20.11;100.00
10718;BME280;13513;42.700;23.124;2023-05-25T08:09:51;93046.94;;;20.06;100.00
10718;BME280;13513;42.700;23.124;2023-05-25T08:12:21;93050.81;;;20.00;97.79
10718;BME280;13513;42.700;23.124;2023-05-25T08:14:52;93050.53;;;19.74;96.61
10718;BME280;13513;42.700;23.124;2023-05-25T08:17:25;93048.91;;;19.62;97.33
10718;BME280;13513;42.700;23.124;2023-05-25T08:19:55;93059.33;;;19.63;100.00
10718;BME280;13513;42.700;23.124;2023-05-25T08:22:27;93062.12;;;19.72;100.00
10718;BME280;13513;42.700;23.124;2023-05-25T08:24:58;93058.58;;;19.74;100.00
10718;BME280;13513;42.700;23.124;2023-05-25T08:27:28;93071.50;;;19.99;100.00
10718;BME280;13513;42.700;23.124;2023-05-25T08:29:58;93083.82;;;20.14;96.92
10718;BME280;13513;42.700;23.124;2023-05-25T08:32:28;93094.59;;;20.25;99.30
10718;BME280;13513;42.700;23.124;2023-05-25T08:34:59;93104.41;;;19.75;99.11
10718;BME280;13513;42.700;23.124;2023-05-25T08:37:32;93121.17;;;18.89;100.00
10718;BME280;13513;42.700;23.124;2023-05-25T08:40:03;93124.39;;;18.12;100.00
10718;BME280;13513;42.700;23.124;2023-05-25T08:42:35;93137.47;;;17.69;100.00
10718;BME280;13513;42.700;23.124;2023-05-25T08:45:06;93137.30;;;17.30;100.00
10718;BME280;13513;42.700;23.124;2023-05-25T08:47:41;93137.33;;;16.94;100.00
10718;BME280;13513;42.700;23.124;2023-05-25T08:50:12;93143.27;;;16.86;100.00
10718;BME280;13513;42.700;23.124;2023-05-25T08:52:45;93142.67;;;16.94;100.00
10718;BME280;13513;42.700;23.124;2023-05-25T08:55:17;93137.63;;;16.92;100.00
10718;BME280;13513;42.700;23.124;2023-05-25T08:57:59;93139.02;;;17.16;100.00
10718;BME280;13513;42.700;23.124;2023-05-25T09:00:35;93136.95;;;17.08;100.00
10718;BME280;13513;42.700;23.124;2023-05-25T09:03:12;93128.92;;;17.41;100.00
10718;BME280;13513;42.700;23.124;2023-05-25T09:05:42;93136.29;;;17.54;100.00
10718;BME280;13513;42.700;23.124;2023-05-25T09:08:13;93132.90;;;17.70;100.00
10718;BME280;13513;42.700;23.124;2023-05-25T09:10:44;93127.60;;;17.88;100.00
10718;BME280;13513;42.700;23.124;2023-05-25T09:13:16;93130.70;;;17.51;100.00
10718;BME280;13513;42.700;23.124;2023-05-25T09:15:46;93130.48;;;17.71;100.00
10718;BME280;13513;42.700;23.124;2023-05-25T09:18:17;93136.54;;;17.55;100.00
10718;BME280;13513;42.700;23.124;2023-05-25T09:20:48;93136.66;;;17.43;100.00
10718;BME280;13513;42.700;23.124;2023-05-25T09:23:19;93135.13;;;17.32;100.00
10718;BME280;13513;42.700;23.124;2023-05-25T09:25:51;93140.91;;;17.44;100.00
10718;BME280;13513;42.700;23.124;2023-05-25T09:28:25;93146.20;;;17.51;100.00
10718;BME280;13513;42.700;23.124;2023-05-25T09:30:56;93138.96;;;17.54;100.00
10718;BME280;13513;42.700;23.124;2023-05-25T09:33:27;93142.53;;;17.68;100.00
10718;BME280;13513;42.700;23.124;2023-05-25T09:36:00;93141.48;;;17.69;100.00
10718;BME280;13513;42.700;23.124;2023-05-25T09:38:32;93133.30;;;17.82;100.00
10718;BME280;13513;42.700;23.124;2023-05-25T09:41:04;93135.81;;;17.73;100.00
10718;BME280;13513;42.700;23.124;2023-05-25T09:43:36;93138.92;;;17.80;100.00
10718;BME280;13513;42.700;23.124;2023-05-25T09:46:07;93134.80;;;18.11;100.00
10718;BME280;13513;42.700;23.124;2023-05-25T09:48:38;93135.62;;;17.91;100.00
10718;BME280;13513;42.700;23.124;2023-05-25T09:51:08;93130.05;;;18.08;100.00
10718;BME280;13513;42.700;23.124;2023-05-25T09:53:39;93126.59;;;18.26;100.00
10718;BME280;13513;42.700;23.124;2023-05-25T09:56:10;93129.05;;;18.46;100.00
10718;BME280;13513;42.700;23.124;2023-05-25T09:58:42;93124.13;;;18.72;100.00
10718;BME280;13513;42.700;23.124;2023-05-25T10:01:13;93123.38;;;18.85;100.00
10718;BME280;13513;42.700;23.124;2023-05-25T10:03:46;93124.57;;;18.76;100.00
10718;BME280;13513;42.700;23.124;2023-05-25T10:06:17;93123.61;;;19.20;100.00
10718;BME280;13513;42.700;23.124;2023-05-25T10:08:49;93118.80;;;19.36;97.74
10718;BME280;13513;42.700;23.124;2023-05-25T10:11:23;93114.28;;;19.18;93.96
10718;BME280;13513;42.700;23.124;2023-05-25T10:13:57;93113.10;;;19.40;91.92
10718;BME280;13513;42.700;23.124;2023-05-25T10:16:31;93113.30;;;19.59;95.69
10718;BME280;13513;42.700;23.124;2023-05-25T10:19:09;93102.42;;;19.81;91.71
10718;BME280;13513;42.700;23.124;2023-05-25T10:21:37;93098.39;;;20.08;88.35
10718;BME280;13513;42.700;23.124;2023-05-25T10:24:14;93097.00;;;20.13;89.48
10718;BME280;13513;42.700;23.124;2023-05-25T10:26:45;93100.54;;;20.08;86.58
10718;BME280;13513;42.700;23.124;2023-05-25T10:29:16;93099.27;;;19.92;83.09
10718;BME280;13513;42.700;23.124;2023-05-25T10:31:48;93100.40;;;20.16;88.90
10718;BME280;13513;42.700;23.124;2023-05-25T10:34:20;93098.05;;;20.14;85.15
10718;BME280;13513;42.700;23.124;2023-05-25T10:36:52;93095.48;;;19.93;84.83
10718;BME280;13513;42.700;23.124;2023-05-25T10:39:24;93086.20;;;19.75;83.84
10718;BME280;13513;42.700;23.124;2023-05-25T10:41:55;93084.91;;;19.86;79.27
10718;BME280;13513;42.700;23.124;2023-05-25T10:44:27;93080.66;;;20.09;85.08
10718;BME280;13513;42.700;23.124;2023-05-25T10:47:00;93076.88;;;20.24;88.57
10718;BME280;13513;42.700;23.124;2023-05-25T10:49:32;93067.42;;;20.40;82.68
10718;BME280;13513;42.700;23.124;2023-05-25T10:52:03;93064.12;;;20.43;79.54
10718;BME280;13513;42.700;23.124;2023-05-25T10:54:35;93063.94;;;20.15;84.15
10718;BME280;13513;42.700;23.124;2023-05-25T10:57:27;93066.33;;;20.41;82.03
10718;BME280;13513;42.700;23.124;2023-05-25T10:59:47;93059.40;;;20.73;72.78
10718;BME280;13513;42.700;23.124;2023-05-25T11:02:20;93068.54;;;21.18;72.35
10718;BME280;13513;42.700;23.124;2023-05-25T11:07:55;93064.16;;;21.92;61.27
10718;BME280;13513;42.700;23.124;2023-05-25T11:13:35;93054.80;;;23.05;71.92
10718;BME280;13513;42.700;23.124;2023-05-25T11:16:37;93059.60;;;23.48;68.12
10718;BME280;13513;42.700;23.124;2023-05-25T11:18:58;93055.00;;;23.95;65.70
10718;BME280;13513;42.700;23.124;2023-05-25T11:24:14;93053.11;;;24.39;63.52
10718;BME280;13513;42.700;23.124;2023-05-25T11:26:53;93053.52;;;24.84;64.38
10718;BME280;13513;42.700;23.124;2023-05-25T11:29:23;93063.36;;;24.89;59.98
10718;BME280;13513;42.700;23.124;2023-05-25T11:31:54;93059.05;;;24.88;58.98
10718;BME280;13513;42.700;23.124;2023-05-25T11:34:24;93046.09;;;25.08;62.56
10718;BME280;13513;42.700;23.124;2023-05-25T11:36:58;93045.67;;;25.18;55.80
10718;BME280;13513;42.700;23.124;2023-05-25T11:39:31;93046.69;;;25.13;56.14
10718;BME280;13513;42.700;23.124;2023-05-25T11:42:04;93041.28;;;25.19;56.61
10718;BME280;13513;42.700;23.124;2023-05-25T11:44:36;93037.55;;;25.12;51.20
10718;BME280;13513;42.700;23.124;2023-05-25T11:47:10;93042.48;;;25.04;51.83
10718;BME280;13513;42.700;23.124;2023-05-25T11:49:45;93040.00;;;25.11;48.61
10718;BME280;13513;42.700;23.124;2023-05-25T11:52:19;93041.95;;;24.96;49.59
10718;BME280;13513;42.700;23.124;2023-05-25T11:54:50;93041.30;;;24.93;49.05
10718;BME280;13513;42.700;23.124;2023-05-25T11:57:23;93039.35;;;24.87;53.93
10718;BME280;13513;42.700;23.124;2023-05-25T11:59:57;93041.48;;;24.88;52.96
10718;BME280;13513;42.700;23.124;2023-05-25T12:02:35;93038.60;;;24.99;53.36
10718;BME280;13513;42.700;23.124;2023-05-25T12:05:00;93027.17;;;25.14;52.51
10718;BME280;13513;42.700;23.124;2023-05-25T12:07:33;93025.84;;;25.46;50.40
10718;BME280;13513;42.700;23.124;2023-05-25T12:10:09;93028.25;;;25.72;48.59
10718;BME280;13513;42.700;23.124;2023-05-25T12:12:48;93016.42;;;25.88;48.51
10718;BME280;13513;42.700;23.124;2023-05-25T12:15:23;93016.23;;;26.11;47.94
10718;BME280;13513;42.700;23.124;2023-05-25T12:17:54;93022.78;;;26.22;46.91
10718;BME280;13513;42.700;23.124;2023-05-25T12:20:24;93021.83;;;26.54;42.45
10718;BME280;13513;42.700;23.124;2023-05-25T12:22:55;93017.64;;;26.81;43.63
10718;BME280;13513;42.700;23.124;2023-05-25T12:25:26;93011.80;;;27.01;47.32
10718;BME280;13513;42.700;23.124;2023-05-25T12:28:14;93010.77;;;27.05;43.39
10718;BME280;13513;42.700;23.124;2023-05-25T12:30:45;93003.78;;;26.98;41.84
10718;BME280;13513;42.700;23.124;2023-05-25T12:33:16;93004.93;;;26.91;44.42
10718;BME280;13513;42.700;23.124;2023-05-25T12:35:48;92999.25;;;26.63;38.55
10718;BME280;13513;42.700;23.124;2023-05-25T12:38:20;93001.97;;;25.78;38.25
10718;BME280;13513;42.700;23.124;2023-05-25T12:41:06;92997.34;;;25.22;39.68
10718;BME280;13513;42.700;23.124;2023-05-25T12:43:39;93001.84;;;25.24;39.80
10718;BME280;13513;42.700;23.124;2023-05-25T12:46:09;92990.69;;;24.87;39.24
10718;BME280;13513;42.700;23.124;2023-05-25T12:48:39;92989.34;;;24.93;41.38
10718;BME280;13513;42.700;23.124;2023-05-25T12:51:10;92991.20;;;25.07;40.19
10718;BME280;13513;42.700;23.124;2023-05-25T12:53:52;92978.27;;;25.13;43.55
10718;BME280;13513;42.700;23.124;2023-05-25T12:56:23;92978.67;;;25.03;40.86
10718;BME280;13513;42.700;23.124;2023-05-25T12:58:54;92980.63;;;24.82;40.55
10718;BME280;13513;42.700;23.124;2023-05-25T13:01:25;92972.41;;;24.84;44.51
10718;BME280;13513;42.700;23.124;2023-05-25T13:03:57;92968.14;;;24.89;42.56
10718;BME280;13513;42.700;23.124;2023-05-25T13:06:28;92972.03;;;24.59;42.88
10718;BME280;13513;42.700;23.124;2023-05-25T13:08:59;92962.78;;;24.34;44.51
10718;BME280;13513;42.700;23.124;2023-05-25T13:11:30;92962.34;;;23.97;43.67
10718;BME280;13513;42.700;23.124;2023-05-25T13:14:00;92956.79;;;23.93;45.20
10718;BME280;13513;42.700;23.124;2023-05-25T13:16:33;92954.53;;;23.66;43.46
10718;BME280;13513;42.700;23.124;2023-05-25T13:19:04;92962.94;;;23.50;44.51